sensor_id;sensor_type;location;lat;lon;timestamp;pressure;altitude;pressure_sealevel;temperature;humidity
42887;BME280;29032;56.028;92.904;2022-12-07T00:02:17;101187.44;;;-14.48;42.50
42887;BME280;29032;56.028;92.904;2022-12-07T00:07:19;101177.72;;;-14.52;42.80
42887;BME280;29032;56.028;92.904;2022-12-07T00:12:21;101186.84;;;-14.41;42.17
42887;BME280;29032;56.028;92.904;2022-12-07T00:17:25;101190.31;;;-14.40;42.43
42887;BME280;29032;56.028;92.904;2022-12-07T00:22:27;101202.03;;;-14.17;42.26
42887;BME280;29032;56.028;92.904;2022-12-07T00:27:29;101202.19;;;-14.10;42.00
42887;BME280;29032;56.028;92.904;2022-12-07T00:32:33;101210.63;;;-14.11;41.88
42887;BME280;29032;56.028;92.904;2022-12-07T00:37:35;101208.34;;;-14.09;41.90
42887;BME280;29032;56.028;92.904;2022-12-07T00:42:37;101199.91;;;-14.08;41.99
42887;BME280;29032;56.028;92.904;2022-12-07T00:47:40;101206.16;;;-14.04;42.00
42887;BME280;29032;56.028;92.904;2022-12-07T00:52:43;101199.72;;;-13.99;41.97
42887;BME280;29032;56.028;92.904;2022-12-07T00:57:45;101199.81;;;-13.96;41.60
42887;BME280;29032;56.028;92.904;2022-12-07T01:02:48;101207.72;;;-14.03;41.92
42887;BME280;29032;56.028;92.904;2022-12-07T01:07:50;101203.03;;;-14.06;42.20
42887;BME280;29032;56.028;92.904;2022-12-07T01:12:53;101206.22;;;-14.00;41.58
42887;BME280;29032;56.028;92.904;2022-12-07T01:17:56;101205.72;;;-14.06;41.58
42887;BME280;29032;56.028;92.904;2022-12-07T01:22:58;101214.34;;;-14.16;41.68
42887;BME280;29032;56.028;92.904;2022-12-07T01:28:00;101218.09;;;-14.21;41.55
42887;BME280;29032;56.028;92.904;2022-12-07T01:33:04;101218.69;;;-14.27;41.48
42887;BME280;29032;56.028;92.904;2022-12-07T01:38:06;101215.94;;;-14.47;42.01
42887;BME280;29032;56.028;92.904;2022-12-07T01:43:15;101231.94;;;-14.54;42.10
42887;BME280;29032;56.028;92.904;2022-12-07T01:48:23;101231.03;;;-14.58;42.13
42887;BME280;29032;56.028;92.904;2022-12-07T01:53:29;101203.06;;;-14.69;42.35
42887;BME280;29032;56.028;92.904;2022-12-07T01:58:32;101218.53;;;-14.66;42.13
42887;BME280;29032;56.028;92.904;2022-12-07T02:03:39;101217.84;;;-14.63;42.69
42887;BME280;29032;56.028;92.904;2022-12-07T02:08:42;101207.53;;;-14.61;42.48
42887;BME280;29032;56.028;92.904;2022-12-07T02:13:46;101212.97;;;-14.41;42.42
42887;BME280;29032;56.028;92.904;2022-12-07T02:19:09;101206.72;;;-14.30;42.34
42887;BME280;29032;56.028;92.904;2022-12-07T02:24:43;101212.09;;;-14.14;41.63
42887;BME280;29032;56.028;92.904;2022-12-07T02:29:54;101219.44;;;-13.95;41.03
42887;BME280;29032;56.028;92.904;2022-12-07T02:35:05;101204.94;;;-14.06;41.04
42887;BME280;29032;56.028;92.904;2022-12-07T02:40:10;101220.22;;;-13.95;41.03
42887;BME280;29032;56.028;92.904;2022-12-07T02:45:18;101217.63;;;-14.07;41.43
42887;BME280;29032;56.028;92.904;2022-12-07T02:50:22;101216.34;;;-14.13;41.44
42887;BME280;29032;56.028;92.904;2022-12-07T02:55:28;101221.66;;;-14.16;40.98
42887;BME280;29032;56.028;92.904;2022-12-07T03:00:38;101220.53;;;-14.31;41.11
42887;BME280;29032;56.028;92.904;2022-12-07T03:05:54;101224.88;;;-14.42;41.57
42887;BME280;29032;56.028;92.904;2022-12-07T03:11:03;101225.91;;;-14.47;41.18
42887;BME280;29032;56.028;92.904;2022-12-07T03:16:12;101236.00;;;-14.60;41.30
42887;BME280;29032;56.028;92.904;2022-12-07T03:21:18;101234.59;;;-14.69;41.65
42887;BME280;29032;56.028;92.904;2022-12-07T03:26:24;101233.13;;;-14.67;41.32
42887;BME280;29032;56.028;92.904;2022-12-07T03:31:32;101226.69;;;-14.78;41.81
42887;BME280;29032;56.028;92.904;2022-12-07T03:36:39;101239.97;;;-14.69;41.60
42887;BME280;29032;56.028;92.904;2022-12-07T03:41:43;101232.06;;;-14.78;41.63
42887;BME280;29032;56.028;92.904;2022-12-07T03:46:54;101225.19;;;-14.76;42.26
42887;BME280;29032;56.028;92.904;2022-12-07T03:52:04;101229.47;;;-14.59;42.45
42887;BME280;29032;56.028;92.904;2022-12-07T03:57:12;101230.78;;;-14.37;41.85
42887;BME280;29032;56.028;92.904;2022-12-07T04:02:17;101225.19;;;-14.12;41.10
42887;BME280;29032;56.028;92.904;2022-12-07T04:07:19;101229.28;;;-14.03;40.82
42887;BME280;29032;56.028;92.904;2022-12-07T04:12:21;101229.03;;;-13.78;40.98
42887;BME280;29032;56.028;92.904;2022-12-07T04:17:25;101230.91;;;-13.63;40.70
42887;BME280;29032;56.028;92.904;2022-12-07T04:22:27;101227.00;;;-13.66;40.13
42887;BME280;29032;56.028;92.904;2022-12-07T04:27:29;101239.13;;;-13.56;40.25
42887;BME280;29032;56.028;92.904;2022-12-07T04:32:34;101239.13;;;-13.75;40.12
42887;BME280;29032;56.028;92.904;2022-12-07T04:37:36;101238.97;;;-13.82;40.22
42887;BME280;29032;56.028;92.904;2022-12-07T04:42:38;101231.03;;;-13.75;40.10
42887;BME280;29032;56.028;92.904;2022-12-07T04:47:42;101242.41;;;-13.66;40.58
42887;BME280;29032;56.028;92.904;2022-12-07T04:52:44;101244.09;;;-13.58;40.16
42887;BME280;29032;56.028;92.904;2022-12-07T04:57:46;101257.63;;;-13.39;40.34
42887;BME280;29032;56.028;92.904;2022-12-07T05:02:50;101257.63;;;-13.19;39.72
42887;BME280;29032;56.028;92.904;2022-12-07T05:07:52;101261.25;;;-13.12;39.54
42887;BME280;29032;56.028;92.904;2022-12-07T05:12:54;101247.69;;;-13.15;39.15
42887;BME280;29032;56.028;92.904;2022-12-07T05:17:57;101248.97;;;-13.09;39.34
42887;BME280;29032;56.028;92.904;2022-12-07T05:23:00;101252.84;;;-13.06;39.13
42887;BME280;29032;56.028;92.904;2022-12-07T05:28:02;101241.78;;;-13.01;39.81
42887;BME280;29032;56.028;92.904;2022-12-07T05:33:06;101248.69;;;-12.81;38.49
42887;BME280;29032;56.028;92.904;2022-12-07T05:38:08;101240.53;;;-12.85;39.26
42887;BME280;29032;56.028;92.904;2022-12-07T05:43:10;101239.19;;;-12.71;38.92
42887;BME280;29032;56.028;92.904;2022-12-07T05:48:14;101241.06;;;-12.75;39.34
42887;BME280;29032;56.028;92.904;2022-12-07T05:53:16;101214.44;;;-13.00;39.35
42887;BME280;29032;56.028;92.904;2022-12-07T05:58:18;101216.31;;;-13.23;39.20
42887;BME280;29032;56.028;92.904;2022-12-07T06:03:22;101221.16;;;-13.32;39.91
42887;BME280;29032;56.028;92.904;2022-12-07T06:08:24;101191.47;;;-13.52;39.67
42887;BME280;29032;56.028;92.904;2022-12-07T06:13:26;101221.28;;;-13.45;40.01
42887;BME280;29032;56.028;92.904;2022-12-07T06:18:30;101226.16;;;-13.50;40.14
42887;BME280;29032;56.028;92.904;2022-12-07T06:23:40;101218.72;;;-13.57;40.23
42887;BME280;29032;56.028;92.904;2022-12-07T06:28:43;101213.47;;;-13.50;40.50
42887;BME280;29032;56.028;92.904;2022-12-07T06:33:46;101224.97;;;-13.33;40.28
42887;BME280;29032;56.028;92.904;2022-12-07T06:38:48;101209.22;;;-13.31;40.96
42887;BME280;29032;56.028;92.904;2022-12-07T06:43:51;101209.06;;;-13.19;40.13
42887;BME280;29032;56.028;92.904;2022-12-07T06:48:54;101217.94;;;-13.38;41.14
42887;BME280;29032;56.028;92.904;2022-12-07T06:53:57;101210.34;;;-13.52;41.30
42887;BME280;29032;56.028;92.904;2022-12-07T06:58:59;101212.47;;;-13.61;41.27
42887;BME280;29032;56.028;92.904;2022-12-07T07:04:03;101211.63;;;-13.65;41.26
42887;BME280;29032;56.028;92.904;2022-12-07T07:09:05;101216.16;;;-13.69;41.44
42887;BME280;29032;56.028;92.904;2022-12-07T07:14:10;101214.56;;;-13.70;41.51
42887;BME280;29032;56.028;92.904;2022-12-07T07:19:14;101214.16;;;-13.72;41.91
42887;BME280;29032;56.028;92.904;2022-12-07T07:24:16;101210.97;;;-13.58;41.84
42887;BME280;29032;56.028;92.904;2022-12-07T07:29:19;101216.16;;;-13.50;41.65
42887;BME280;29032;56.028;92.904;2022-12-07T07:34:28;101203.53;;;-13.46;41.64
42887;BME280;29032;56.028;92.904;2022-12-07T07:39:30;101214.31;;;-13.46;41.82
42887;BME280;29032;56.028;92.904;2022-12-07T07:44:32;101201.25;;;-13.44;41.38
42887;BME280;29032;56.028;92.904;2022-12-07T07:49:35;101196.28;;;-13.42;41.39
42887;BME280;29032;56.028;92.904;2022-12-07T07:54:38;101216.78;;;-13.56;41.62
42887;BME280;29032;56.028;92.904;2022-12-07T07:59:40;101196.44;;;-13.54;41.31
42887;BME280;29032;56.028;92.904;2022-12-07T08:04:44;101197.09;;;-13.60;41.40
42887;BME280;29032;56.028;92.904;2022-12-07T08:09:47;101187.41;;;-13.42;42.48
42887;BME280;29032;56.028;92.904;2022-12-07T08:14:49;101189.97;;;-13.30;41.62
42887;BME280;29032;56.028;92.904;2022-12-07T08:19:52;101190.09;;;-13.23;41.17
42887;BME280;29032;56.028;92.904;2022-12-07T08:24:55;101184.53;;;-13.33;41.66
42887;BME280;29032;56.028;92.904;2022-12-07T08:29:57;101171.47;;;-13.31;41.81
42887;BME280;29032;56.028;92.904;2022-12-07T08:35:01;101180.59;;;-13.17;41.33
42887;BME280;29032;56.028;92.904;2022-12-07T08:40:05;101171.09;;;-13.30;41.87
42887;BME280;29032;56.028;92.904;2022-12-07T08:45:10;101181.09;;;-13.30;41.59
42887;BME280;29032;56.028;92.904;2022-12-07T08:50:14;101176.72;;;-13.39;41.63
42887;BME280;29032;56.028;92.904;2022-12-07T08:55:17;101177.28;;;-13.49;42.11
42887;BME280;29032;56.028;92.904;2022-12-07T09:00:19;101171.31;;;-13.58;42.24
42887;BME280;29032;56.028;92.904;2022-12-07T09:05:23;101177.56;;;-13.54;42.65
42887;BME280;29032;56.028;92.904;2022-12-07T09:10:25;101185.09;;;-13.44;42.20
42887;BME280;29032;56.028;92.904;2022-12-07T09:15:27;101182.03;;;-13.42;42.07
42887;BME280;29032;56.028;92.904;2022-12-07T09:20:31;101193.69;;;-13.38;42.39
42887;BME280;29032;56.028;92.904;2022-12-07T09:25:33;101186.78;;;-13.36;41.90
42887;BME280;29032;56.028;92.904;2022-12-07T09:30:36;101186.63;;;-13.43;42.51
42887;BME280;29032;56.028;92.904;2022-12-07T09:35:44;101192.94;;;-13.35;42.18
42887;BME280;29032;56.028;92.904;2022-12-07T09:40:47;101187.78;;;-13.24;42.29
42887;BME280;29032;56.028;92.904;2022-12-07T09:45:51;101194.50;;;-13.15;41.58
42887;BME280;29032;56.028;92.904;2022-12-07T09:50:57;101188.59;;;-13.20;42.07
42887;BME280;29032;56.028;92.904;2022-12-07T09:56:00;101198.16;;;-13.26;42.32
42887;BME280;29032;56.028;92.904;2022-12-07T10:01:11;101192.16;;;-13.36;42.23
42887;BME280;29032;56.028;92.904;2022-12-07T10:06:16;101207.78;;;-13.25;41.75
42887;BME280;29032;56.028;92.904;2022-12-07T10:11:18;101187.34;;;-13.26;41.70
42887;BME280;29032;56.028;92.904;2022-12-07T10:16:37;101197.97;;;-13.14;41.68
42887;BME280;29032;56.028;92.904;2022-12-07T10:21:59;101196.41;;;-13.15;41.54
42887;BME280;29032;56.028;92.904;2022-12-07T10:27:01;101195.63;;;-13.16;42.08
42887;BME280;29032;56.028;92.904;2022-12-07T10:32:05;101196.41;;;-13.15;41.82
42887;BME280;29032;56.028;92.904;2022-12-07T10:37:15;101191.88;;;-13.11;41.88
42887;BME280;29032;56.028;92.904;2022-12-07T10:42:19;101200.91;;;-13.23;42.27
42887;BME280;29032;56.028;92.904;2022-12-07T10:47:33;101209.50;;;-13.37;42.41
42887;BME280;29032;56.028;92.904;2022-12-07T10:52:56;101204.97;;;-13.52;42.28
42887;BME280;29032;56.028;92.904;2022-12-07T10:58:13;101208.06;;;-13.50;43.50
42887;BME280;29032;56.028;92.904;2022-12-07T11:03:40;101210.22;;;-13.40;43.13
42887;BME280;29032;56.028;92.904;2022-12-07T11:08:56;101191.97;;;-13.27;42.70
42887;BME280;29032;56.028;92.904;2022-12-07T11:14:08;101200.91;;;-13.23;43.43
42887;BME280;29032;56.028;92.904;2022-12-07T11:24:53;101197.16;;;-13.38;43.57
42887;BME280;29032;56.028;92.904;2022-12-07T11:30:08;101200.56;;;-13.41;43.59
42887;BME280;29032;56.028;92.904;2022-12-07T11:35:23;101199.94;;;-13.34;43.90
42887;BME280;29032;56.028;92.904;2022-12-07T11:40:30;101203.25;;;-13.41;43.61
42887;BME280;29032;56.028;92.904;2022-12-07T11:45:34;101202.25;;;-13.52;44.08
42887;BME280;29032;56.028;92.904;2022-12-07T11:50:40;101211.06;;;-13.55;44.04
42887;BME280;29032;56.028;92.904;2022-12-07T11:55:48;101230.38;;;-13.53;44.37
42887;BME280;29032;56.028;92.904;2022-12-07T12:00:56;101201.84;;;-13.54;43.86
42887;BME280;29032;56.028;92.904;2022-12-07T12:06:05;101210.44;;;-13.48;43.64
42887;BME280;29032;56.028;92.904;2022-12-07T12:11:18;101207.06;;;-13.42;43.82
42887;BME280;29032;56.028;92.904;2022-12-07T12:16:49;101202.91;;;-13.39;43.77
42887;BME280;29032;56.028;92.904;2022-12-07T12:22:04;101208.78;;;-13.53;43.82
42887;BME280;29032;56.028;92.904;2022-12-07T12:27:17;101206.50;;;-13.51;43.50
42887;BME280;29032;56.028;92.904;2022-12-07T12:32:23;101208.84;;;-13.49;43.36
42887;BME280;29032;56.028;92.904;2022-12-07T12:37:45;101204.22;;;-13.49;43.50
42887;BME280;29032;56.028;92.904;2022-12-07T12:42:51;101211.13;;;-13.51;43.69
42887;BME280;29032;56.028;92.904;2022-12-07T12:47:56;101199.16;;;-13.54;43.67
42887;BME280;29032;56.028;92.904;2022-12-07T12:53:14;101196.59;;;-13.47;42.84
42887;BME280;29032;56.028;92.904;2022-12-07T12:58:40;101194.16;;;-13.52;43.88
42887;BME280;29032;56.028;92.904;2022-12-07T13:03:52;101186.81;;;-13.55;43.22
42887;BME280;29032;56.028;92.904;2022-12-07T13:08:57;101180.97;;;-13.57;43.29
42887;BME280;29032;56.028;92.904;2022-12-07T13:19:55;101183.31;;;-13.55;43.81
42887;BME280;29032;56.028;92.904;2022-12-07T13:24:58;101184.75;;;-13.61;43.47
42887;BME280;29032;56.028;92.904;2022-12-07T13:30:01;101166.84;;;-13.70;43.44
42887;BME280;29032;56.028;92.904;2022-12-07T13:35:29;101188.13;;;-13.65;43.58
42887;BME280;29032;56.028;92.904;2022-12-07T13:40:32;101181.41;;;-13.74;43.16
42887;BME280;29032;56.028;92.904;2022-12-07T13:45:34;101181.13;;;-13.69;43.45
42887;BME280;29032;56.028;92.904;2022-12-07T13:50:38;101190.88;;;-13.80;43.82
42887;BME280;29032;56.028;92.904;2022-12-07T13:55:45;101182.19;;;-13.74;43.79
42887;BME280;29032;56.028;92.904;2022-12-07T14:00:47;101182.19;;;-13.74;43.87
42887;BME280;29032;56.028;92.904;2022-12-07T14:06:04;101182.22;;;-13.70;44.24
42887;BME280;29032;56.028;92.904;2022-12-07T14:11:09;101178.28;;;-13.57;44.12
42887;BME280;29032;56.028;92.904;2022-12-07T14:16:25;101181.19;;;-13.46;43.43
42887;BME280;29032;56.028;92.904;2022-12-07T14:21:32;101182.09;;;-13.39;43.30
42887;BME280;29032;56.028;92.904;2022-12-07T14:26:35;101172.72;;;-13.25;42.69
42887;BME280;29032;56.028;92.904;2022-12-07T14:31:37;101171.72;;;-13.17;42.96
42887;BME280;29032;56.028;92.904;2022-12-07T14:36:41;101181.53;;;-13.28;43.28
42887;BME280;29032;56.028;92.904;2022-12-07T14:41:43;101176.56;;;-13.46;43.54
42887;BME280;29032;56.028;92.904;2022-12-07T14:46:46;101183.63;;;-13.41;44.53
42887;BME280;29032;56.028;92.904;2022-12-07T14:51:49;101176.00;;;-13.36;44.95
42887;BME280;29032;56.028;92.904;2022-12-07T14:56:52;101175.81;;;-13.46;44.90
42887;BME280;29032;56.028;92.904;2022-12-07T15:01:54;101166.28;;;-13.40;44.89
42887;BME280;29032;56.028;92.904;2022-12-07T15:06:59;101173.28;;;-13.36;45.31
42887;BME280;29032;56.028;92.904;2022-12-07T15:12:01;101158.25;;;-13.37;44.02
42887;BME280;29032;56.028;92.904;2022-12-07T15:17:04;101159.69;;;-13.43;43.75
42887;BME280;29032;56.028;92.904;2022-12-07T15:22:07;101159.91;;;-13.51;43.68
42887;BME280;29032;56.028;92.904;2022-12-07T15:27:10;101161.03;;;-13.52;43.91
42887;BME280;29032;56.028;92.904;2022-12-07T15:32:12;101164.38;;;-13.59;43.93
42887;BME280;29032;56.028;92.904;2022-12-07T15:37:23;101162.53;;;-13.55;43.49
42887;BME280;29032;56.028;92.904;2022-12-07T15:42:25;101155.66;;;-13.52;43.05
42887;BME280;29032;56.028;92.904;2022-12-07T15:47:27;101154.00;;;-13.57;43.45
42887;BME280;29032;56.028;92.904;2022-12-07T15:52:31;101158.97;;;-13.59;43.87
42887;BME280;29032;56.028;92.904;2022-12-07T15:57:35;101166.97;;;-13.63;43.99
42887;BME280;29032;56.028;92.904;2022-12-07T16:02:38;101160.13;;;-13.60;43.21
42887;BME280;29032;56.028;92.904;2022-12-07T16:07:42;101145.34;;;-13.66;43.30
42887;BME280;29032;56.028;92.904;2022-12-07T16:12:44;101153.72;;;-13.71;43.86
42887;BME280;29032;56.028;92.904;2022-12-07T16:17:46;101144.59;;;-13.67;44.08
42887;BME280;29032;56.028;92.904;2022-12-07T16:22:53;101135.28;;;-13.50;43.49
42887;BME280;29032;56.028;92.904;2022-12-07T16:27:55;101128.28;;;-13.54;43.90
42887;BME280;29032;56.028;92.904;2022-12-07T16:32:57;101137.56;;;-13.52;44.22
42887;BME280;29032;56.028;92.904;2022-12-07T16:38:01;101138.97;;;-13.58;44.66
42887;BME280;29032;56.028;92.904;2022-12-07T16:43:03;101136.91;;;-13.65;44.14
42887;BME280;29032;56.028;92.904;2022-12-07T16:48:05;101137.00;;;-13.61;44.12
42887;BME280;29032;56.028;92.904;2022-12-07T16:53:09;101147.06;;;-13.58;44.58
42887;BME280;29032;56.028;92.904;2022-12-07T16:58:12;101154.88;;;-13.53;43.95
42887;BME280;29032;56.028;92.904;2022-12-07T17:03:15;101153.88;;;-13.45;43.61
42887;BME280;29032;56.028;92.904;2022-12-07T17:08:18;101149.97;;;-13.47;45.16
42887;BME280;29032;56.028;92.904;2022-12-07T17:13:20;101148.75;;;-13.50;45.49
42887;BME280;29032;56.028;92.904;2022-12-07T17:18:23;101149.63;;;-13.46;45.59
42887;BME280;29032;56.028;92.904;2022-12-07T17:23:26;101141.81;;;-13.51;46.53
42887;BME280;29032;56.028;92.904;2022-12-07T17:28:29;101150.63;;;-13.54;45.99
42887;BME280;29032;56.028;92.904;2022-12-07T17:33:31;101157.06;;;-13.58;46.01
42887;BME280;29032;56.028;92.904;2022-12-07T17:38:35;101155.22;;;-13.54;45.89
42887;BME280;29032;56.028;92.904;2022-12-07T17:43:38;101156.44;;;-13.52;46.50
42887;BME280;29032;56.028;92.904;2022-12-07T17:48:40;101164.94;;;-13.50;45.79
42887;BME280;29032;56.028;92.904;2022-12-07T17:53:46;101155.78;;;-13.65;46.73
42887;BME280;29032;56.028;92.904;2022-12-07T17:58:49;101161.91;;;-13.68;46.45
42887;BME280;29032;56.028;92.904;2022-12-07T18:03:52;101168.28;;;-13.76;46.66
42887;BME280;29032;56.028;92.904;2022-12-07T18:08:55;101170.31;;;-13.88;46.53
42887;BME280;29032;56.028;92.904;2022-12-07T18:13:58;101173.28;;;-13.94;46.52
42887;BME280;29032;56.028;92.904;2022-12-07T18:19:01;101157.13;;;-13.94;45.94
42887;BME280;29032;56.028;92.904;2022-12-07T18:24:08;101153.53;;;-14.17;45.66
42887;BME280;29032;56.028;92.904;2022-12-07T18:29:14;101152.88;;;-14.30;45.57
42887;BME280;29032;56.028;92.904;2022-12-07T18:34:19;101153.91;;;-14.34;46.06
42887;BME280;29032;56.028;92.904;2022-12-07T18:39:26;101155.75;;;-14.38;45.61
42887;BME280;29032;56.028;92.904;2022-12-07T18:44:28;101159.06;;;-14.45;45.25
42887;BME280;29032;56.028;92.904;2022-12-07T18:49:30;101165.84;;;-14.51;45.58
42887;BME280;29032;56.028;92.904;2022-12-07T18:54:34;101169.91;;;-14.41;45.72
42887;BME280;29032;56.028;92.904;2022-12-07T18:59:36;101172.94;;;-14.43;45.33
42887;BME280;29032;56.028;92.904;2022-12-07T19:04:38;101164.97;;;-14.39;45.24
42887;BME280;29032;56.028;92.904;2022-12-07T19:09:42;101168.59;;;-14.48;45.47
42887;BME280;29032;56.028;92.904;2022-12-07T19:14:44;101170.59;;;-14.44;45.12
42887;BME280;29032;56.028;92.904;2022-12-07T19:19:46;101171.28;;;-14.48;45.89
42887;BME280;29032;56.028;92.904;2022-12-07T19:24:52;101156.38;;;-14.61;46.75
42887;BME280;29032;56.028;92.904;2022-12-07T19:29:54;101173.38;;;-14.57;47.41
42887;BME280;29032;56.028;92.904;2022-12-07T19:34:56;101181.28;;;-14.48;47.40
42887;BME280;29032;56.028;92.904;2022-12-07T19:40:00;101176.84;;;-14.40;47.08
42887;BME280;29032;56.028;92.904;2022-12-07T19:45:02;101191.34;;;-14.29;47.01
42887;BME280;29032;56.028;92.904;2022-12-07T19:50:06;101191.25;;;-14.17;46.93
42887;BME280;29032;56.028;92.904;2022-12-07T19:55:09;101200.22;;;-13.94;47.21
42887;BME280;29032;56.028;92.904;2022-12-07T20:00:12;101199.03;;;-13.77;45.54
42887;BME280;29032;56.028;92.904;2022-12-07T20:05:15;101209.00;;;-13.61;45.00
42887;BME280;29032;56.028;92.904;2022-12-07T20:10:19;101203.59;;;-13.81;44.85
42887;BME280;29032;56.028;92.904;2022-12-07T20:15:21;101198.41;;;-14.05;45.16
42887;BME280;29032;56.028;92.904;2022-12-07T20:20:23;101205.84;;;-14.18;44.91
42887;BME280;29032;56.028;92.904;2022-12-07T20:25:27;101198.88;;;-14.19;45.33
42887;BME280;29032;56.028;92.904;2022-12-07T20:30:29;101201.41;;;-14.26;45.01
42887;BME280;29032;56.028;92.904;2022-12-07T20:35:31;101179.59;;;-14.21;45.25
42887;BME280;29032;56.028;92.904;2022-12-07T20:40:35;101193.59;;;-14.15;45.56
42887;BME280;29032;56.028;92.904;2022-12-07T20:45:43;101200.00;;;-14.04;45.02
42887;BME280;29032;56.028;92.904;2022-12-07T20:50:45;101206.94;;;-14.03;44.95
42887;BME280;29032;56.028;92.904;2022-12-07T20:55:49;101202.41;;;-13.99;44.97
42887;BME280;29032;56.028;92.904;2022-12-07T21:00:51;101199.03;;;-14.12;45.01
42887;BME280;29032;56.028;92.904;2022-12-07T21:05:53;101202.03;;;-14.17;45.11
42887;BME280;29032;56.028;92.904;2022-12-07T21:10:57;101198.81;;;-14.23;45.58
42887;BME280;29032;56.028;92.904;2022-12-07T21:15:59;101182.88;;;-14.12;45.29
42887;BME280;29032;56.028;92.904;2022-12-07T21:21:01;101187.47;;;-13.97;45.08
42887;BME280;29032;56.028;92.904;2022-12-07T21:26:09;101190.22;;;-13.93;45.69
42887;BME280;29032;56.028;92.904;2022-12-07T21:31:12;101185.75;;;-13.85;45.17
42887;BME280;29032;56.028;92.904;2022-12-07T21:36:15;101188.91;;;-13.83;45.29
42887;BME280;29032;56.028;92.904;2022-12-07T21:41:22;101176.19;;;-14.02;45.36
42887;BME280;29032;56.028;92.904;2022-12-07T21:46:26;101194.28;;;-14.18;45.93
42887;BME280;29032;56.028;92.904;2022-12-07T21:51:29;101193.31;;;-14.26;46.10
42887;BME280;29032;56.028;92.904;2022-12-07T21:56:34;101193.25;;;-14.30;46.36
42887;BME280;29032;56.028;92.904;2022-12-07T22:01:37;101197.88;;;-14.30;46.14
42887;BME280;29032;56.028;92.904;2022-12-07T22:06:39;101201.59;;;-14.35;46.65
42887;BME280;29032;56.028;92.904;2022-12-07T22:11:43;101211.75;;;-14.28;47.01
42887;BME280;29032;56.028;92.904;2022-12-07T22:16:45;101206.53;;;-14.21;46.75
42887;BME280;29032;56.028;92.904;2022-12-07T22:21:47;101211.84;;;-14.25;46.38
42887;BME280;29032;56.028;92.904;2022-12-07T22:26:51;101212.88;;;-14.29;47.33
42887;BME280;29032;56.028;92.904;2022-12-07T22:31:53;101210.19;;;-14.29;46.59
42887;BME280;29032;56.028;92.904;2022-12-07T22:36:55;101212.00;;;-14.17;47.06
42887;BME280;29032;56.028;92.904;2022-12-07T22:41:59;101219.63;;;-14.04;46.97
42887;BME280;29032;56.028;92.904;2022-12-07T22:47:01;101221.88;;;-13.90;47.22
42887;BME280;29032;56.028;92.904;2022-12-07T22:52:03;101221.56;;;-13.85;46.46
42887;BME280;29032;56.028;92.904;2022-12-07T22:57:07;101227.88;;;-13.97;46.26
42887;BME280;29032;56.028;92.904;2022-12-07T23:02:09;101223.72;;;-14.10;46.25
42887;BME280;29032;56.028;92.904;2022-12-07T23:07:11;101216.00;;;-14.11;47.04
42887;BME280;29032;56.028;92.904;2022-12-07T23:12:14;101226.13;;;-14.05;46.75
42887;BME280;29032;56.028;92.904;2022-12-07T23:17:17;101236.22;;;-14.02;46.57
42887;BME280;29032;56.028;92.904;2022-12-07T23:22:19;101239.44;;;-13.96;46.46
42887;BME280;29032;56.028;92.904;2022-12-07T23:27:22;101230.56;;;-13.97;46.77
42887;BME280;29032;56.028;92.904;2022-12-07T23:32:24;101238.81;;;-13.89;47.17
42887;BME280;29032;56.028;92.904;2022-12-07T23:37:27;101240.75;;;-13.71;46.49
42887;BME280;29032;56.028;92.904;2022-12-07T23:42:31;101229.91;;;-13.74;46.07
42887;BME280;29032;56.028;92.904;2022-12-07T23:47:33;101229.75;;;-13.81;45.38
42887;BME280;29032;56.028;92.904;2022-12-07T23:52:43;101235.81;;;-13.84;45.97
42887;BME280;29032;56.028;92.904;2022-12-07T23:57:47;101231.88;;;-13.90;45.49
